Time;durP1;ratioP1;P1;durP2;ratioP2;P2;SDS_P1;SDS_P2;PMS_P1;PMS_P2;Temp;Humidity;BMP_temperature;BMP_pressure;BME280_temperature;BME280_humidity;BME280_pressure;Samples;Min_cycle;Max_cycle;Signal;HPM_P1;HPM_P2
2021/11/18 00:00:33;;;;;;;25.02;14.45;;;5.60;99.90;;;;;;5093639;28;20048;-67
2021/11/18 00:03:02;;;;;;;24.48;13.80;;;5.70;99.90;;;;;;5111842;28;20035;-67
2021/11/18 00:05:31;;;;;;;26.42;15.00;;;5.60;99.90;;;;;;5111850;28;20071;-67
2021/11/18 00:07:58;;;;;;;32.38;16.00;;;5.70;99.90;;;;;;5111340;28;20047;-66
2021/11/18 00:10:31;;;;;;;24.52;15.80;;;5.70;99.90;;;;;;5111224;28;20536;-67
2021/11/18 00:13:00;;;;;;;28.77;16.45;;;5.70;99.90;;;;;;5110787;28;20049;-66
2021/11/18 00:15:29;;;;;;;27.90;16.67;;;5.60;99.90;;;;;;5103205;28;20047;-67
2021/11/18 00:18:02;;;;;;;25.58;15.50;;;5.60;99.90;;;;;;5105924;28;20127;-67
2021/11/18 00:20:36;;;;;;;30.38;16.10;;;5.70;99.90;;;;;;5107101;28;20043;-67
2021/11/18 00:23:03;;;;;;;29.13;17.00;;;5.70;99.90;;;;;;5110954;28;20040;-67
2021/11/18 00:25:32;;;;;;;25.25;16.00;;;5.70;99.90;;;;;;5086145;28;20040;-67
2021/11/18 00:28:00;;;;;;;29.42;16.30;;;5.70;99.90;;;;;;5073046;28;20040;-67
2021/11/18 00:30:28;;;;;;;31.70;16.92;;;5.70;99.90;;;;;;5087210;28;20036;-67
2021/11/18 00:32:56;;;;;;;30.70;17.05;;;5.70;99.90;;;;;;5084834;28;20044;-67
2021/11/18 00:35:27;;;;;;;30.73;17.20;;;5.70;99.90;;;;;;5092708;28;20133;-67
2021/11/18 00:37:55;;;;;;;33.27;17.57;;;5.70;99.90;;;;;;5111683;28;20043;-67
2021/11/18 00:40:31;;;;;;;33.55;18.05;;;5.70;99.90;;;;;;5082825;28;20296;-67
2021/11/18 00:42:58;;;;;;;30.73;16.85;;;5.70;99.90;;;;;;5111251;28;20036;-68
2021/11/18 00:45:27;;;;;;;32.42;17.52;;;5.70;99.90;;;;;;5108202;28;20036;-68
2021/11/18 00:47:55;;;;;;;37.60;17.23;;;5.80;99.90;;;;;;5111024;28;20039;-68
2021/11/18 00:50:26;;;;;;;36.95;18.65;;;5.80;99.90;;;;;;5102873;28;20491;-68
2021/11/18 00:52:54;;;;;;;32.83;18.08;;;5.80;99.90;;;;;;5080944;28;20106;-68
2021/11/18 00:55:24;;;;;;;35.13;18.90;;;5.80;99.90;;;;;;5092791;28;20066;-68
2021/11/18 00:57:53;;;;;;;36.67;18.98;;;5.80;99.90;;;;;;5078411;28;20126;-68
2021/11/18 01:00:24;;;;;;;38.15;20.10;;;5.70;99.90;;;;;;5082843;28;20388;-67
2021/11/18 01:02:52;;;;;;;35.63;18.83;;;5.70;99.90;;;;;;5088542;28;20040;-68
2021/11/18 01:05:24;;;;;;;40.08;19.65;;;5.80;99.90;;;;;;5110341;28;20495;-68
2021/11/18 01:07:54;;;;;;;42.40;20.00;;;5.80;99.90;;;;;;5092378;28;20405;-67
2021/11/18 01:10:22;;;;;;;46.88;20.70;;;5.70;99.90;;;;;;5110527;28;20043;-67
2021/11/18 01:12:50;;;;;;;53.13;21.27;;;5.80;99.90;;;;;;5110552;28;20046;-68
2021/11/18 01:15:22;;;;;;;51.05;21.30;;;5.80;99.90;;;;;;5097138;28;20040;-68
2021/11/18 01:17:49;;;;;;;39.45;20.95;;;5.70;99.90;;;;;;5092718;28;20047;-68
2021/11/18 01:20:20;;;;;;;52.05;22.55;;;5.70;99.90;;;;;;5080582;28;20494;-68
2021/11/18 01:22:47;;;;;;;54.85;22.33;;;5.70;99.90;;;;;;5078613;28;20043;-68
2021/11/18 01:25:16;;;;;;;52.65;23.13;;;5.70;99.90;;;;;;5091066;28;20042;-68
2021/11/18 01:27:49;;;;;;;51.85;23.60;;;5.70;99.90;;;;;;5085213;28;20490;-68
2021/11/18 01:30:26;;;;;;;58.08;23.45;;;5.60;99.90;;;;;;5071598;28;20094;-67
2021/11/18 01:32:55;;;;;;;57.40;24.15;;;5.60;99.90;;;;;;5098440;28;20435;-68
2021/11/18 01:35:32;;;;;;;54.40;23.02;;;5.60;99.90;;;;;;5074067;28;20436;-68
2021/11/18 01:38:00;;;;;;;52.17;23.70;;;5.60;99.90;;;;;;5053958;28;20072;-68
2021/11/18 01:40:32;;;;;;;54.85;22.23;;;5.60;99.90;;;;;;5088256;28;20032;-67
2021/11/18 01:43:12;;;;;;;51.55;23.95;;;5.70;99.90;;;;;;5083947;28;20494;-68
2021/11/18 01:45:41;;;;;;;59.00;23.55;;;5.70;99.90;;;;;;5078150;28;20085;-68
2021/11/18 01:48:09;;;;;;;60.42;24.50;;;5.70;99.90;;;;;;5096623;28;20389;-68
2021/11/18 01:50:40;;;;;;;60.10;24.25;;;5.70;99.90;;;;;;5091256;28;20379;-67
2021/11/18 01:53:16;;;;;;;53.13;22.88;;;5.80;99.90;;;;;;5090079;28;20492;-68
2021/11/18 01:55:48;;;;;;;59.50;23.58;;;5.80;99.90;;;;;;5084363;28;20036;-67
2021/11/18 01:58:17;;;;;;;60.13;25.15;;;5.70;99.90;;;;;;5090737;28;20063;-67
2021/11/18 02:01:05;;;;;;;64.18;24.70;;;5.70;99.90;;;;;;5088348;28;20040;-68
2021/11/18 02:03:33;;;;;;;69.00;25.33;;;5.70;99.90;;;;;;5070433;28;20040;-67
2021/11/18 02:06:23;;;;;;;57.60;23.35;;;5.70;99.90;;;;;;5072121;28;20024;-67
2021/11/18 02:08:52;;;;;;;66.28;25.50;;;5.60;99.90;;;;;;5082748;28;20048;-67
2021/11/18 02:11:39;;;;;;;56.47;24.50;;;5.60;99.90;;;;;;5082924;28;20127;-67
2021/11/18 02:14:11;;;;;;;62.13;26.08;;;5.70;99.90;;;;;;5079598;28;20040;-67
2021/11/18 02:16:39;;;;;;;57.50;25.88;;;5.70;99.90;;;;;;5082256;28;20035;-67
2021/11/18 02:19:10;;;;;;;60.78;25.00;;;5.70;99.90;;;;;;5094510;28;20058;-68
2021/11/18 02:21:39;;;;;;;59.90;23.87;;;5.70;99.90;;;;;;5073523;28;20040;-67
2021/11/18 02:24:15;;;;;;;59.58;25.35;;;5.70;99.90;;;;;;5075107;28;20050;-67
2021/11/18 02:26:46;;;;;;;62.65;26.23;;;5.70;99.90;;;;;;5075841;28;20559;-67
2021/11/18 02:29:14;;;;;;;61.53;24.20;;;5.70;99.90;;;;;;5093079;28;20666;-67
2021/11/18 02:31:52;;;;;;;60.80;25.17;;;5.70;99.90;;;;;;5077403;28;20109;-68
2021/11/18 02:34:43;;;;;;;49.17;23.33;;;5.70;99.90;;;;;;5075186;28;20056;-68
2021/11/18 02:37:11;;;;;;;57.72;23.40;;;5.80;99.90;;;;;;5074686;28;20518;-68
2021/11/18 02:39:40;;;;;;;57.85;23.15;;;5.80;99.90;;;;;;5082600;28;20035;-68
2021/11/18 02:42:09;;;;;;;52.30;24.17;;;5.80;99.90;;;;;;5082237;28;20189;-68
2021/11/18 02:44:38;;;;;;;57.03;24.42;;;5.80;99.90;;;;;;5083813;28;20047;-67
2021/11/18 02:47:11;;;;;;;53.30;23.95;;;5.90;99.90;;;;;;5077904;28;20386;-68
2021/11/18 02:49:43;;;;;;;56.83;22.45;;;5.90;99.90;;;;;;5084738;28;20043;-68
2021/11/18 02:52:13;;;;;;;54.05;24.27;;;5.90;99.90;;;;;;5077182;28;20040;-68
2021/11/18 02:54:41;;;;;;;57.53;23.75;;;5.90;99.90;;;;;;5090476;28;20505;-68
2021/11/18 02:57:09;;;;;;;47.80;23.38;;;6.00;99.90;;;;;;5074868;28;20055;-68
2021/11/18 02:59:39;;;;;;;47.13;21.80;;;6.00;99.90;;;;;;5063315;28;20059;-67
2021/11/18 03:02:07;;;;;;;46.97;22.73;;;6.00;99.90;;;;;;5095022;28;20047;-68
2021/11/18 03:04:36;;;;;;;46.45;21.48;;;6.00;99.90;;;;;;5079354;28;20070;-68
2021/11/18 03:07:18;;;;;;;50.80;22.23;;;6.00;99.90;;;;;;5086850;28;20044;-66
2021/11/18 03:09:45;;;;;;;57.15;25.02;;;6.00;99.90;;;;;;5087414;28;20047;-67
2021/11/18 03:12:15;;;;;;;52.40;23.65;;;6.00;99.90;;;;;;5074082;28;20044;-68
2021/11/18 03:14:43;;;;;;;54.63;23.50;;;6.00;99.90;;;;;;5076027;28;20084;-67
2021/11/18 03:17:11;;;;;;;47.83;22.13;;;6.00;99.90;;;;;;5083780;28;20440;-68
2021/11/18 03:20:08;;;;;;;56.20;23.33;;;6.00;99.90;;;;;;5091437;28;20048;-67
2021/11/18 03:22:37;;;;;;;46.05;22.13;;;6.10;99.90;;;;;;5078944;28;20043;-67
2021/11/18 03:25:06;;;;;;;48.40;22.58;;;6.00;99.90;;;;;;5088441;28;20036;-67
2021/11/18 03:27:35;;;;;;;53.78;22.45;;;6.00;99.90;;;;;;5075502;28;20494;-67
2021/11/18 03:30:09;;;;;;;55.38;23.35;;;6.00;99.90;;;;;;5077116;28;20040;-67
2021/11/18 03:32:40;;;;;;;50.67;23.13;;;6.00;99.90;;;;;;5056211;28;20107;-67
2021/11/18 03:35:08;;;;;;;50.53;22.95;;;6.00;99.90;;;;;;5074106;28;20036;-67
2021/11/18 03:37:36;;;;;;;51.25;23.15;;;6.00;99.90;;;;;;5072777;28;20093;-67
2021/11/18 03:40:05;;;;;;;54.15;24.67;;;6.00;99.90;;;;;;5099252;28;20466;-67
2021/11/18 03:42:33;;;;;;;50.25;22.77;;;5.90;99.90;;;;;;5062488;28;20051;-67
2021/11/18 03:45:00;;;;;;;50.70;22.67;;;6.00;99.90;;;;;;5086386;28;20163;-67
2021/11/18 03:47:27;;;;;;;46.00;22.33;;;6.00;99.90;;;;;;5090568;28;20044;-68
2021/11/18 03:49:55;;;;;;;52.92;23.67;;;6.00;99.90;;;;;;5094117;28;20039;-67
2021/11/18 03:52:23;;;;;;;42.10;22.30;;;6.00;99.90;;;;;;5092292;28;20032;-67
2021/11/18 03:54:51;;;;;;;46.97;22.30;;;6.10;99.90;;;;;;5093987;28;20397;-67
2021/11/18 03:57:19;;;;;;;45.17;22.27;;;6.00;99.90;;;;;;5072523;28;20047;-67
2021/11/18 03:59:57;;;;;;;46.45;22.55;;;6.00;99.90;;;;;;5079509;28;20063;-67
2021/11/18 04:02:25;;;;;;;43.30;21.48;;;6.10;99.90;;;;;;5091572;28;20054;-67
2021/11/18 04:04:59;;;;;;;45.90;22.88;;;6.10;99.90;;;;;;5095347;28;20040;-67
2021/11/18 04:07:38;;;;;;;45.80;22.00;;;6.10;99.90;;;;;;5092127;28;20067;-67
2021/11/18 04:10:10;;;;;;;43.90;20.92;;;6.10;99.90;;;;;;5085156;28;20036;-67
2021/11/18 04:12:40;;;;;;;46.45;21.80;;;6.10;99.90;;;;;;5081216;28;20079;-68
2021/11/18 04:15:09;;;;;;;47.08;22.60;;;6.10;99.90;;;;;;5071726;28;20440;-67
2021/11/18 04:17:36;;;;;;;45.20;22.88;;;6.00;99.90;;;;;;5055574;28;20136;-67
2021/11/18 04:20:07;;;;;;;47.47;23.45;;;6.00;99.90;;;;;;5081826;28;20063;-67
2021/11/18 04:22:37;;;;;;;44.67;22.05;;;6.00;99.90;;;;;;5091844;28;20494;-67
2021/11/18 04:25:06;;;;;;;40.90;21.00;;;6.00;99.90;;;;;;5088813;28;20036;-67
2021/11/18 04:27:34;;;;;;;43.85;20.98;;;6.00;99.90;;;;;;5079278;28;20074;-67
2021/11/18 04:30:05;;;;;;;43.50;21.10;;;6.00;99.90;;;;;;5079126;28;20494;-67
2021/11/18 04:32:32;;;;;;;46.80;22.02;;;6.00;99.90;;;;;;5072043;28;20414;-67
2021/11/18 04:35:00;;;;;;;39.55;21.10;;;6.00;99.90;;;;;;5074461;28;20057;-66
2021/11/18 04:37:28;;;;;;;41.67;21.00;;;6.00;99.90;;;;;;5082045;28;20039;-66
2021/11/18 04:39:55;;;;;;;42.20;20.85;;;6.10;99.90;;;;;;5085911;28;20076;-66
2021/11/18 04:42:24;;;;;;;42.17;20.00;;;6.00;99.90;;;;;;5090542;28;20071;-66
2021/11/18 04:45:07;;;;;;;42.95;20.55;;;6.10;99.90;;;;;;5084387;28;20482;-67
2021/11/18 04:47:35;;;;;;;42.53;21.15;;;6.10;99.90;;;;;;5041640;28;20135;-66
2021/11/18 04:50:04;;;;;;;41.47;21.23;;;6.10;99.90;;;;;;5073727;28;20537;-66
2021/11/18 04:52:31;;;;;;;38.90;19.63;;;6.10;99.90;;;;;;5084941;28;20048;-66
2021/11/18 04:55:02;;;;;;;41.28;21.50;;;6.00;99.90;;;;;;5083409;28;20048;-66
2021/11/18 04:57:34;;;;;;;41.90;21.73;;;6.00;99.90;;;;;;5069400;28;20066;-67
2021/11/18 05:00:07;;;;;;;39.00;19.20;;;6.00;99.90;;;;;;5082463;28;20097;-67
2021/11/18 05:02:35;;;;;;;41.45;21.10;;;6.00;99.90;;;;;;5067377;28;20559;-66
2021/11/18 05:05:07;;;;;;;37.17;19.58;;;6.00;99.90;;;;;;5079119;28;20047;-67
2021/11/18 05:07:34;;;;;;;40.17;21.88;;;6.00;99.90;;;;;;5098811;28;20031;-66
2021/11/18 05:10:05;;;;;;;37.67;20.30;;;5.90;99.90;;;;;;5077544;28;20048;-66
2021/11/18 05:12:32;;;;;;;41.22;21.90;;;6.00;99.90;;;;;;5083705;28;20043;-66
2021/11/18 05:15:00;;;;;;;41.13;22.38;;;6.00;99.90;;;;;;5069239;28;20040;-66
2021/11/18 05:17:27;;;;;;;45.40;21.58;;;6.00;99.90;;;;;;5086683;28;20036;-66
2021/11/18 05:19:55;;;;;;;38.22;20.25;;;6.00;99.90;;;;;;5082287;28;20362;-66
2021/11/18 05:22:22;;;;;;;40.67;22.17;;;6.00;99.90;;;;;;5083174;28;20115;-65
2021/11/18 05:24:49;;;;;;;40.45;21.17;;;6.00;99.90;;;;;;5075180;28;20050;-65
2021/11/18 05:27:17;;;;;;;43.85;21.52;;;6.00;99.90;;;;;;5071593;28;20043;-65
2021/11/18 05:29:44;;;;;;;44.75;22.52;;;6.00;99.90;;;;;;5061182;28;20117;-66
2021/11/18 05:32:11;;;;;;;43.65;21.52;;;5.90;99.90;;;;;;5071917;28;20059;-66
2021/11/18 05:34:59;;;;;;;45.20;22.42;;;5.90;99.90;;;;;;5091023;28;20504;-66
2021/11/18 05:37:28;;;;;;;48.30;22.55;;;5.90;99.90;;;;;;5076015;28;20048;-66
2021/11/18 05:39:55;;;;;;;42.40;21.75;;;5.90;99.90;;;;;;5094734;28;20059;-66
2021/11/18 05:42:22;;;;;;;42.65;21.77;;;5.80;99.90;;;;;;5072030;28;20486;-66
2021/11/18 05:44:52;;;;;;;44.75;22.15;;;5.80;99.90;;;;;;5070378;28;20112;-66
2021/11/18 05:47:21;;;;;;;43.17;21.67;;;5.80;99.90;;;;;;5077755;28;20516;-66
2021/11/18 05:49:49;;;;;;;39.17;19.52;;;5.90;99.90;;;;;;5077262;28;20070;-65
2021/11/18 05:52:22;;;;;;;38.05;19.95;;;5.80;99.90;;;;;;5089114;28;20055;-66
2021/11/18 05:54:49;;;;;;;37.60;20.25;;;5.80;99.90;;;;;;5096848;28;20032;-66
2021/11/18 05:57:18;;;;;;;45.65;22.55;;;5.90;99.90;;;;;;5087656;28;20058;-66
2021/11/18 05:59:47;;;;;;;41.08;21.02;;;5.90;99.90;;;;;;5080131;28;20039;-66
2021/11/18 06:02:14;;;;;;;45.35;23.10;;;5.90;99.90;;;;;;5098179;28;20066;-66
2021/11/18 06:04:44;;;;;;;39.85;21.15;;;5.90;99.90;;;;;;5084713;28;20048;-66
2021/11/18 06:07:11;;;;;;;41.13;21.08;;;5.90;99.90;;;;;;5088872;28;20055;-66
2021/11/18 06:09:39;;;;;;;61.80;27.38;;;5.90;99.90;;;;;;5104740;28;20130;-66
2021/11/18 06:12:10;;;;;;;43.60;23.17;;;5.80;99.90;;;;;;5084622;28;20035;-66
2021/11/18 06:14:39;;;;;;;43.58;20.98;;;5.80;99.90;;;;;;5094329;28;20051;-66
2021/11/18 06:17:06;;;;;;;40.83;21.73;;;5.80;99.90;;;;;;5083160;28;20039;-66
2021/11/18 06:19:34;;;;;;;39.67;21.17;;;5.80;99.90;;;;;;5086240;28;20068;-66
2021/11/18 06:22:02;;;;;;;41.00;21.27;;;5.80;99.90;;;;;;5092420;28;20513;-66
2021/11/18 06:24:39;;;;;;;40.65;21.90;;;5.80;99.90;;;;;;5094907;28;20414;-66
2021/11/18 06:27:07;;;;;;;41.65;21.88;;;5.80;99.90;;;;;;5075240;28;20047;-67
2021/11/18 06:29:34;;;;;;;44.13;21.30;;;5.80;99.90;;;;;;5088151;28;20043;-67
2021/11/18 06:32:05;;;;;;;44.42;23.35;;;5.80;99.90;;;;;;5059605;28;20044;-66
2021/11/18 06:34:34;;;;;;;44.95;22.33;;;5.80;99.90;;;;;;5086497;28;20089;-66
2021/11/18 06:37:02;;;;;;;45.05;22.77;;;5.80;99.90;;;;;;5112825;28;20042;-66
2021/11/18 06:39:39;;;;;;;47.13;23.48;;;5.80;99.90;;;;;;5094480;28;20039;-66
2021/11/18 06:42:09;;;;;;;43.90;21.52;;;5.80;99.90;;;;;;5090352;28;20059;-66
2021/11/18 06:44:39;;;;;;;42.25;22.25;;;5.80;99.90;;;;;;5092803;28;20093;-66
2021/11/18 06:47:08;;;;;;;45.58;23.15;;;5.80;99.90;;;;;;5092463;28;20044;-66
2021/11/18 06:49:38;;;;;;;47.95;24.33;;;5.70;99.90;;;;;;5072138;28;20055;-66
2021/11/18 06:52:08;;;;;;;44.08;22.77;;;5.70;99.90;;;;;;5092274;28;20085;-66
2021/11/18 06:54:36;;;;;;;44.45;23.27;;;5.70;99.90;;;;;;5081395;28;20042;-66
2021/11/18 06:57:05;;;;;;;50.17;24.10;;;5.70;99.90;;;;;;5092956;28;20516;-66
2021/11/18 06:59:32;;;;;;;45.17;23.10;;;5.70;99.90;;;;;;5093401;28;20040;-66
2021/11/18 07:02:00;;;;;;;46.95;22.52;;;5.80;99.90;;;;;;5095053;28;20043;-66
2021/11/18 07:04:28;;;;;;;47.42;22.40;;;5.90;99.90;;;;;;5093320;28;20043;-66
2021/11/18 07:06:56;;;;;;;44.25;23.45;;;5.90;99.90;;;;;;5094746;28;20040;-66
2021/11/18 07:09:23;;;;;;;45.53;22.42;;;5.90;99.90;;;;;;5111134;28;20052;-66
2021/11/18 07:12:08;;;;;;;47.08;23.83;;;5.90;99.90;;;;;;5098238;28;20123;-67
2021/11/18 07:14:37;;;;;;;43.80;22.52;;;6.00;99.90;;;;;;5087757;28;20141;-66
2021/11/18 07:17:07;;;;;;;46.63;23.50;;;6.00;99.90;;;;;;5075796;28;20493;-66
2021/11/18 07:19:34;;;;;;;48.28;23.08;;;6.00;99.90;;;;;;5109250;28;20038;-67
2021/11/18 07:22:03;;;;;;;44.40;22.90;;;6.10;99.90;;;;;;5094533;28;20031;-66
2021/11/18 07:24:59;;;;;;;45.67;23.02;;;6.00;99.90;;;;;;5082400;28;20122;-66
2021/11/18 07:27:28;;;;;;;45.60;24.13;;;6.10;99.90;;;;;;5083803;28;20042;-66
2021/11/18 07:29:58;;;;;;;41.17;22.65;;;6.10;99.90;;;;;;5087029;28;20119;-66
2021/11/18 07:32:26;;;;;;;42.95;23.38;;;6.10;99.90;;;;;;5087973;28;20449;-66
2021/11/18 07:34:59;;;;;;;41.45;22.15;;;6.10;99.90;;;;;;5082265;28;20036;-66
2021/11/18 07:37:28;;;;;;;41.85;23.00;;;6.20;99.90;;;;;;5094022;28;20420;-66
2021/11/18 07:39:56;;;;;;;47.45;25.55;;;6.20;99.90;;;;;;5090825;28;20446;-66
2021/11/18 07:42:25;;;;;;;50.25;24.02;;;6.20;99.90;;;;;;5094014;28;20047;-66
2021/11/18 07:45:13;;;;;;;45.67;23.27;;;6.30;99.90;;;;;;5111367;28;20110;-66
2021/11/18 07:48:04;;;;;;;46.00;23.35;;;6.30;99.90;;;;;;5103536;28;20150;-66
2021/11/18 07:50:32;;;;;;;39.60;21.92;;;6.40;99.90;;;;;;5071509;28;20075;-66
2021/11/18 07:53:02;;;;;;;43.55;21.73;;;6.30;99.90;;;;;;5085388;28;20036;-66
2021/11/18 07:55:29;;;;;;;42.72;22.23;;;6.40;99.90;;;;;;5093328;28;20051;-67
2021/11/18 07:57:57;;;;;;;38.75;21.67;;;6.40;99.90;;;;;;5079135;28;20040;-66
2021/11/18 08:00:25;;;;;;;39.97;22.23;;;6.40;99.90;;;;;;5093387;28;20050;-66
2021/11/18 08:03:09;;;;;;;40.13;21.42;;;6.50;99.90;;;;;;5088957;28;20071;-66
2021/11/18 08:05:55;;;;;;;36.35;20.00;;;6.50;99.90;;;;;;5097757;28;20063;-66
2021/11/18 08:08:23;;;;;;;40.25;21.27;;;6.60;99.90;;;;;;5072997;28;20130;-67
2021/11/18 08:10:52;;;;;;;37.90;21.10;;;6.70;99.90;;;;;;5079320;28;20401;-67
2021/11/18 08:13:20;;;;;;;39.08;21.20;;;6.80;99.90;;;;;;5086256;28;20040;-67
2021/11/18 08:15:48;;;;;;;43.83;21.70;;;6.80;99.90;;;;;;5089251;28;20040;-67
2021/11/18 08:18:15;;;;;;;40.58;21.73;;;6.90;99.90;;;;;;5075432;28;20039;-66
2021/11/18 08:20:43;;;;;;;39.80;21.00;;;6.90;99.90;;;;;;5080642;28;20402;-66
2021/11/18 08:23:10;;;;;;;36.67;20.77;;;7.00;99.90;;;;;;5096902;28;20040;-66
2021/11/18 08:25:39;;;;;;;40.90;23.00;;;6.90;99.90;;;;;;5071537;28;20368;-66
2021/11/18 08:28:09;;;;;;;40.17;22.25;;;6.90;99.90;;;;;;5072847;28;20143;-66
2021/11/18 08:30:37;;;;;;;45.90;22.23;;;6.90;99.90;;;;;;5076059;28;20032;-66
2021/11/18 08:33:06;;;;;;;39.67;20.58;;;6.90;99.90;;;;;;5093187;28;20045;-66
2021/11/18 08:35:38;;;;;;;40.38;21.60;;;7.00;99.90;;;;;;5079808;28;20093;-66
2021/11/18 08:38:13;;;;;;;38.20;20.67;;;6.90;99.90;;;;;;5072844;28;20047;-67
2021/11/18 08:40:49;;;;;;;37.97;20.80;;;6.90;99.90;;;;;;5090353;28;20371;-68
2021/11/18 08:43:17;;;;;;;41.65;22.25;;;6.90;99.90;;;;;;5095466;28;20070;-66
2021/11/18 08:45:46;;;;;;;43.15;21.50;;;6.90;99.90;;;;;;5059602;28;20045;-66
2021/11/18 08:48:14;;;;;;;41.33;21.60;;;7.00;99.90;;;;;;5080873;28;20036;-67
2021/11/18 08:50:45;;;;;;;44.92;22.80;;;7.00;99.90;;;;;;5104341;28;20039;-67
2021/11/18 08:53:18;;;;;;;43.42;21.90;;;7.00;99.90;;;;;;5084022;28;20111;-67
2021/11/18 08:55:46;;;;;;;40.10;20.35;;;7.00;99.90;;;;;;5089945;28;20449;-67
2021/11/18 08:58:17;;;;;;;40.63;21.85;;;7.00;99.90;;;;;;5080232;28;20043;-67
2021/11/18 09:01:17;;;;;;;37.85;20.88;;;7.10;99.90;;;;;;5084332;28;20333;-67
2021/11/18 09:03:50;;;;;;;40.53;21.08;;;7.10;99.90;;;;;;5073920;28;20436;-67
2021/11/18 09:06:22;;;;;;;38.65;22.48;;;7.20;99.90;;;;;;5087346;28;20404;-67
2021/11/18 09:08:54;;;;;;;39.88;21.85;;;7.30;99.90;;;;;;5071500;28;20123;-67
2021/11/18 09:11:24;;;;;;;37.42;19.85;;;7.40;99.90;;;;;;5073927;28;20036;-67
2021/11/18 09:13:54;;;;;;;39.63;21.17;;;7.40;99.90;;;;;;5092040;28;20044;-66
2021/11/18 09:16:25;;;;;;;36.95;20.00;;;7.40;99.90;;;;;;5086087;28;20048;-67
2021/11/18 09:19:18;;;;;;;39.53;20.45;;;7.40;99.90;;;;;;5099744;28;20067;-66
2021/11/18 09:21:50;;;;;;;41.20;20.38;;;7.50;99.90;;;;;;5085421;28;20036;-66
2021/11/18 09:24:32;;;;;;;38.28;20.55;;;7.50;99.90;;;;;;5087325;28;20151;-66
2021/11/18 09:27:09;;;;;;;;;;;7.60;99.90;;;;;;5093102;28;20035;-67
2021/11/18 09:29:37;;;;;;;35.75;18.52;;;7.60;99.90;;;;;;5094698;28;19920;-67
2021/11/18 09:32:20;;;;;;;31.80;18.55;;;7.70;99.90;;;;;;5078435;28;20043;-67
2021/11/18 09:35:00;;;;;;;36.10;19.10;;;7.90;99.90;;;;;;5075850;28;20078;-68
2021/11/18 09:37:29;;;;;;;36.28;18.80;;;8.00;99.90;;;;;;5077683;28;20051;-69
2021/11/18 09:39:56;;;;;;;33.03;18.67;;;8.00;99.90;;;;;;5104843;28;20058;-67
2021/11/18 09:42:31;;;;;;;33.42;16.92;;;7.90;99.90;;;;;;5107861;28;20086;-67
2021/11/18 09:45:05;;;;;;;38.90;20.20;;;8.00;99.90;;;;;;5077382;28;20090;-68
2021/11/18 09:48:13;;;;;;;34.67;17.90;;;8.00;99.90;;;;;;5086578;28;20044;-68
2021/11/18 09:50:55;;;;;;;30.40;17.25;;;8.00;99.90;;;;;;5089606;28;20447;-66
2021/11/18 09:53:28;;;;;;;36.95;18.52;;;8.00;99.90;;;;;;5087650;28;20070;-67
2021/11/18 09:56:11;;;;;;;31.10;18.38;;;8.00;99.90;;;;;;5095793;28;20043;-68
2021/11/18 09:59:02;;;;;;;31.52;17.27;;;8.00;99.90;;;;;;5083171;28;20040;-67
2021/11/18 10:02:07;;;;;;;30.98;17.30;;;8.00;99.90;;;;;;5089585;28;20447;-67
2021/11/18 10:04:57;;;;;;;31.23;15.63;;;8.00;99.90;;;;;;5087642;28;20048;-67
2021/11/18 10:08:01;;;;;;;30.58;16.77;;;8.10;99.90;;;;;;5093264;28;20040;-67
2021/11/18 10:10:49;;;;;;;32.25;17.58;;;8.10;99.90;;;;;;5091219;28;20393;-68
2021/11/18 10:13:35;;;;;;;36.65;17.60;;;8.00;99.90;;;;;;5088880;28;20053;-67
2021/11/18 10:16:08;;;;;;;31.15;17.08;;;7.90;99.90;;;;;;5074605;28;20062;-67
2021/11/18 10:18:43;;;;;;;39.40;20.08;;;8.00;99.90;;;;;;5077670;28;20039;-66
2021/11/18 10:21:20;;;;;;;30.30;17.75;;;8.00;99.90;;;;;;5085181;28;20050;-67
2021/11/18 10:23:50;;;;;;;38.47;20.27;;;8.00;99.90;;;;;;5107379;28;20048;-67
2021/11/18 10:26:23;;;;;;;34.38;18.23;;;8.00;99.90;;;;;;5092595;28;20449;-68
2021/11/18 10:28:59;;;;;;;30.60;17.50;;;8.00;99.90;;;;;;5097522;28;20040;-68
2021/11/18 10:31:39;;;;;;;34.42;17.85;;;7.80;99.90;;;;;;5105320;28;20103;-68
2021/11/18 10:34:09;;;;;;;32.55;18.63;;;7.80;99.90;;;;;;5096787;28;20044;-67
2021/11/18 10:36:51;;;;;;;34.60;17.75;;;7.90;99.90;;;;;;5092258;28;20295;-67
2021/11/18 10:39:40;;;;;;;36.85;19.52;;;7.90;99.90;;;;;;5101968;28;20463;-66
2021/11/18 10:42:19;;;;;;;35.30;18.90;;;7.90;99.90;;;;;;5093579;28;20044;-67
2021/11/18 10:44:55;;;;;;;27.38;17.23;;;8.00;99.90;;;;;;5099604;28;20474;-66
2021/11/18 10:47:35;;;;;;;34.15;17.52;;;7.90;99.90;;;;;;5074426;28;20064;-66
2021/11/18 10:50:03;;;;;;;34.67;19.15;;;7.80;99.90;;;;;;5084585;28;20040;-66
2021/11/18 10:52:35;;;;;;;36.95;19.52;;;7.80;99.90;;;;;;5074328;28;20453;-66
2021/11/18 10:55:21;;;;;;;35.33;18.02;;;7.80;99.90;;;;;;5099954;28;20038;-67
2021/11/18 10:58:09;;;;;;;39.05;19.20;;;7.60;99.90;;;;;;5113196;28;20059;-67
2021/11/18 11:00:37;;;;;;;35.22;17.98;;;7.70;99.90;;;;;;5113426;28;20048;-67
2021/11/18 11:03:22;;;;;;;34.90;18.08;;;7.80;99.90;;;;;;5076608;28;20040;-67
2021/11/18 11:06:12;;;;;;;35.42;18.52;;;7.90;99.90;;;;;;5105945;28;20043;-67
2021/11/18 11:08:43;;;;;;;34.90;18.40;;;7.90;99.90;;;;;;5111751;28;20096;-67
2021/11/18 11:11:41;;;;;;;35.42;18.88;;;7.90;99.90;;;;;;5112873;28;20032;-67
2021/11/18 11:14:32;;;;;;;37.88;19.83;;;7.90;99.90;;;;;;5032616;28;20048;-67
2021/11/18 11:17:37;;;;;;;34.05;18.40;;;8.00;99.90;;;;;;5018092;28;20496;-67
2021/11/18 11:20:38;;;;;;;37.35;18.42;;;8.10;99.90;;;;;;5024910;28;20143;-67
2021/11/18 11:23:30;;;;;;;37.70;19.55;;;8.20;99.90;;;;;;5024990;28;20069;-67
2021/11/18 11:26:10;;;;;;;29.42;18.05;;;8.20;99.90;;;;;;5004118;28;20452;-67
2021/11/18 11:28:43;;;;;;;37.33;18.30;;;8.40;99.90;;;;;;5027983;28;20050;-68
2021/11/18 11:31:29;;;;;;;32.67;17.15;;;8.50;99.90;;;;;;5029419;28;20059;-67
2021/11/18 11:34:05;;;;;;;30.52;16.30;;;8.60;99.90;;;;;;5009148;28;20471;-67
2021/11/18 11:36:44;;;;;;;29.35;18.05;;;8.70;99.90;;;;;;5031693;28;20659;-67
2021/11/18 11:39:24;;;;;;;36.00;17.90;;;8.70;99.90;;;;;;5010192;28;20064;-67
2021/11/18 11:42:30;;;;;;;30.33;16.98;;;8.70;99.90;;;;;;5029356;28;20061;-67
2021/11/18 11:45:09;;;;;;;31.58;16.48;;;8.90;99.90;;;;;;5011177;28;20045;-67
2021/11/18 11:47:51;;;;;;;28.65;16.70;;;8.90;99.90;;;;;;5027818;28;20587;-67
2021/11/18 11:50:51;;;;;;;32.08;16.42;;;8.80;99.90;;;;;;5035898;28;20057;-67
2021/11/18 11:53:38;;;;;;;29.77;15.73;;;8.70;99.90;;;;;;4995037;28;20073;-67
2021/11/18 11:56:17;;;;;;;35.25;17.15;;;8.70;99.90;;;;;;5002203;28;20452;-67
2021/11/18 11:58:51;;;;;;;28.08;15.35;;;8.70;99.90;;;;;;5007849;28;20065;-67
2021/11/18 12:01:49;;;;;;;27.77;16.15;;;8.50;99.90;;;;;;5001005;28;20054;-68
2021/11/18 12:04:43;;;;;;;25.98;15.32;;;8.50;99.90;;;;;;4991041;28;20049;-68
2021/11/18 12:07:23;;;;;;;29.05;14.35;;;8.50;99.90;;;;;;5008430;28;20056;-68
2021/11/18 12:10:27;;;;;;;28.40;13.88;;;8.60;99.90;;;;;;4989366;28;20428;-68
2021/11/18 12:13:19;;;;;;;26.58;14.13;;;8.70;99.90;;;;;;4987003;28;20042;-68
2021/11/18 12:15:52;;;;;;;26.83;14.38;;;8.70;99.90;;;;;;4980768;28;20066;-68
2021/11/18 12:18:30;;;;;;;27.08;14.52;;;8.70;99.90;;;;;;5011139;28;20525;-68
2021/11/18 12:20:59;;;;;;;33.10;17.63;;;8.80;99.90;;;;;;4999031;28;20042;-68
2021/11/18 12:24:03;;;;;;;28.25;16.75;;;8.90;99.90;;;;;;5007127;28;20145;-68
2021/11/18 12:26:49;;;;;;;28.98;16.08;;;8.80;99.90;;;;;;5002372;28;20406;-68
2021/11/18 12:29:17;;;;;;;28.73;16.05;;;8.80;99.90;;;;;;5058225;28;20135;-68
2021/11/18 12:32:08;;;;;;;27.08;15.80;;;8.80;99.90;;;;;;5091158;28;20051;-68
2021/11/18 12:35:14;;;;;;;26.00;15.73;;;8.80;99.90;;;;;;5087371;28;20496;-68
2021/11/18 12:38:01;;;;;;;32.35;16.90;;;8.90;99.90;;;;;;5096161;28;20036;-67
2021/11/18 12:41:07;;;;;;;27.90;16.58;;;8.80;99.90;;;;;;5094571;28;20042;-68
2021/11/18 12:43:54;;;;;;;28.63;15.18;;;8.80;99.90;;;;;;5090701;28;20039;-68
2021/11/18 12:46:47;;;;;;;28.95;15.55;;;8.60;99.90;;;;;;5097193;28;20522;-68
2021/11/18 12:49:19;;;;;;;29.55;17.13;;;8.60;99.90;;;;;;5081119;28;20050;-68
2021/11/18 12:52:10;;;;;;;29.50;15.83;;;8.40;99.90;;;;;;5099319;28;20100;-68
2021/11/18 12:54:39;;;;;;;25.30;13.15;;;8.30;99.90;;;;;;5094069;28;20040;-68
2021/11/18 12:57:36;;;;;;;28.67;13.75;;;8.30;99.90;;;;;;5107068;28;20047;-68
2021/11/18 13:00:10;;;;;;;29.83;14.65;;;8.30;99.90;;;;;;5071621;28;20051;-68
2021/11/18 13:02:37;;;;;;;27.83;14.80;;;8.20;99.90;;;;;;5072374;28;20046;-69
2021/11/18 13:05:08;;;;;;;27.23;14.70;;;8.10;99.90;;;;;;5102718;28;20047;-68
2021/11/18 13:07:48;;;;;;;24.45;13.60;;;8.10;99.90;;;;;;5092991;28;20044;-69
2021/11/18 13:10:18;;;;;;;22.67;13.27;;;8.30;99.90;;;;;;5097576;28;20101;-68
2021/11/18 13:13:04;;;;;;;28.08;14.07;;;8.30;99.90;;;;;;5081056;28;20063;-68